Time;durP1;ratioP1;P1;durP2;ratioP2;P2;SDS_P1;SDS_P2;PMS_P1;PMS_P2;Temp;Humidity;BMP_temperature;BMP_pressure;BME280_temperature;BME280_humidity;BME280_pressure;Samples;Min_cycle;Max_cycle;Signal;HPM_P1;HPM_P2
2022/07/15 00:02:12;;;;;;;0.90;0.67;;;20.10;95.80;;;;;;5060645;28;22423;-86
2022/07/15 00:04:40;;;;;;;1.27;1.17;;;20.10;95.80;;;;;;5059485;28;20550;-86
2022/07/15 00:07:07;;;;;;;0.70;0.70;;;20.20;95.80;;;;;;5060930;28;21177;-86
2022/07/15 00:12:19;;;;;;;0.80;0.67;;;20.10;96.80;;;;;;5062480;28;20450;-86
2022/07/15 00:14:49;;;;;;;0.77;0.77;;;20.10;97.20;;;;;;5059989;28;20459;-88
2022/07/15 00:17:16;;;;;;;0.60;0.60;;;20.00;97.60;;;;;;5061775;28;20449;-88
2022/07/15 00:19:43;;;;;;;1.40;0.73;;;19.90;98.60;;;;;;5059006;28;20466;-85
2022/07/15 00:22:11;;;;;;;0.80;0.80;;;19.90;99.20;;;;;;5060313;28;20511;-85
2022/07/15 00:24:38;;;;;;;2.53;0.70;;;19.70;99.90;;;;;;5060303;28;20498;-86
2022/07/15 00:27:05;;;;;;;0.90;0.90;;;19.60;99.90;;;;;;5060858;28;20459;-87
2022/07/15 00:29:32;;;;;;;0.80;0.77;;;19.40;99.90;;;;;;5057093;28;20873;-89
2022/07/15 00:32:01;;;;;;;1.70;0.97;;;19.20;99.90;;;;;;5059809;28;20469;-88
2022/07/15 00:34:28;;;;;;;1.30;1.20;;;19.00;99.90;;;;;;5061685;28;20445;-85
2022/07/15 00:36:55;;;;;;;0.70;0.70;;;18.80;99.90;;;;;;5060903;28;20459;-85
2022/07/15 00:39:22;;;;;;;0.83;0.83;;;18.50;99.90;;;;;;5060860;28;20583;-87
2022/07/15 00:41:49;;;;;;;1.27;1.20;;;18.50;99.90;;;;;;5060139;28;20459;-86
2022/07/15 00:44:16;;;;;;;0.70;0.70;;;18.50;99.90;;;;;;5060303;28;21010;-85
2022/07/15 00:46:43;;;;;;;1.10;1.00;;;18.50;99.90;;;;;;5062531;28;20816;-87
2022/07/15 00:49:12;;;;;;;1.20;1.10;;;18.40;99.90;;;;;;5058117;28;20460;-86
2022/07/15 00:51:46;;;;;;;0.90;0.90;;;18.50;99.90;;;;;;5058842;28;20463;-86
2022/07/15 00:54:15;;;;;;;1.07;0.97;;;18.60;99.90;;;;;;5056601;28;20679;-88
2022/07/15 00:56:47;;;;;;;6.27;1.27;;;18.60;99.90;;;;;;5055824;28;20466;-85
2022/07/15 00:59:15;;;;;;;0.80;0.80;;;18.50;99.90;;;;;;5056483;28;21039;-85
2022/07/15 01:01:44;;;;;;;1.03;0.93;;;18.50;99.90;;;;;;5058534;28;20479;-85
2022/07/15 01:04:14;;;;;;;1.00;1.00;;;18.50;99.90;;;;;;5057176;28;20470;-86
2022/07/15 01:06:42;;;;;;;1.17;1.07;;;18.60;99.90;;;;;;5069659;28;20491;-85
2022/07/15 01:09:10;;;;;;;1.07;0.70;;;18.50;99.90;;;;;;5068945;28;20492;-85
2022/07/15 01:11:37;;;;;;;1.27;1.03;;;18.30;99.90;;;;;;5078993;28;20439;-85
2022/07/15 01:14:05;;;;;;;1.20;1.10;;;18.30;99.90;;;;;;5072992;28;20558;-85
2022/07/15 01:16:32;;;;;;;2.13;1.33;;;18.30;99.90;;;;;;5065012;28;20505;-85
2022/07/15 01:18:59;;;;;;;1.17;1.07;;;18.30;99.90;;;;;;5064393;28;20514;-85
2022/07/15 01:21:29;;;;;;;1.03;1.03;;;18.20;99.90;;;;;;5064150;28;20468;-86
2022/07/15 01:23:56;;;;;;;1.63;1.30;;;18.10;99.90;;;;;;5060863;28;20461;-87
2022/07/15 01:26:23;;;;;;;0.83;0.80;;;18.10;99.90;;;;;;5058451;28;20959;-87
2022/07/15 01:28:50;;;;;;;1.90;0.97;;;18.00;99.90;;;;;;5063321;28;20456;-86
2022/07/15 01:31:17;;;;;;;1.70;1.60;;;17.80;99.90;;;;;;5062796;28;20465;-86
2022/07/15 01:33:45;;;;;;;1.57;1.43;;;17.70;99.90;;;;;;5061511;28;21067;-86
2022/07/15 01:36:12;;;;;;;1.73;1.47;;;17.50;99.90;;;;;;5058847;28;20469;-86
2022/07/15 01:38:40;;;;;;;2.10;1.23;;;17.30;99.90;;;;;;5062634;28;20481;-86
2022/07/15 01:41:07;;;;;;;1.67;1.57;;;17.20;99.90;;;;;;5062496;28;20517;-88
2022/07/15 01:43:34;;;;;;;1.30;1.00;;;17.10;99.90;;;;;;5063269;28;20944;-87
2022/07/15 01:46:01;;;;;;;1.50;1.20;;;17.00;99.90;;;;;;5064716;28;20502;-86
2022/07/15 01:51:13;;;;;;;3.37;2.17;;;16.70;99.90;;;;;;5065535;28;20431;-87
2022/07/15 01:53:41;;;;;;;1.90;1.63;;;16.60;99.90;;;;;;5062884;28;20528;-87
2022/07/15 01:56:08;;;;;;;2.00;1.90;;;16.60;99.90;;;;;;5058378;28;20509;-87
2022/07/15 01:58:35;;;;;;;2.30;1.43;;;16.60;99.90;;;;;;5062477;28;20652;-87
2022/07/15 02:01:02;;;;;;;1.63;1.53;;;16.70;99.90;;;;;;5057412;28;20513;-87
2022/07/15 02:03:29;;;;;;;2.07;1.73;;;16.60;99.90;;;;;;5062958;28;20517;-86
2022/07/15 02:05:56;;;;;;;2.33;2.13;;;16.60;99.90;;;;;;5063834;28;20458;-86
2022/07/15 02:08:23;;;;;;;1.43;1.33;;;16.50;99.90;;;;;;5060818;28;20843;-86
2022/07/15 02:10:52;;;;;;;1.67;1.57;;;16.40;99.90;;;;;;5056377;28;20463;-89
2022/07/15 02:13:19;;;;;;;2.13;1.87;;;16.30;99.90;;;;;;5062185;28;20460;-88
2022/07/15 02:15:46;;;;;;;3.93;2.07;;;16.30;99.90;;;;;;5060092;28;20941;-89
2022/07/15 02:18:13;;;;;;;2.00;1.80;;;16.30;99.90;;;;;;5061374;28;20485;-86
2022/07/15 02:20:40;;;;;;;1.90;1.73;;;16.30;99.90;;;;;;5059109;28;20468;-88
2022/07/15 02:23:07;;;;;;;2.00;1.50;;;16.40;99.90;;;;;;5058758;28;20490;-89
2022/07/15 02:25:35;;;;;;;3.47;2.30;;;16.50;99.90;;;;;;5063387;28;20810;-87
2022/07/15 02:28:05;;;;;;;1.63;1.27;;;16.50;99.90;;;;;;5064472;28;20534;-86
2022/07/15 02:30:35;;;;;;;3.33;2.20;;;16.70;99.90;;;;;;5061818;28;20501;-86
2022/07/15 02:33:03;;;;;;;2.10;1.90;;;16.70;99.90;;;;;;5060569;28;20476;-89
2022/07/15 02:35:30;;;;;;;2.10;2.00;;;16.70;99.90;;;;;;5060302;28;20452;-87
2022/07/15 02:37:58;;;;;;;2.23;1.70;;;16.90;99.90;;;;;;5061983;28;20443;-90
2022/07/15 02:40:25;;;;;;;1.77;1.67;;;16.90;99.90;;;;;;5063295;28;20838;-89
2022/07/15 02:42:54;;;;;;;1.90;1.70;;;16.90;99.90;;;;;;5059691;28;20459;-87
2022/07/15 02:45:24;;;;;;;2.00;1.60;;;17.00;99.90;;;;;;5062835;28;20513;-86
2022/07/15 02:47:52;;;;;;;2.10;1.77;;;16.90;99.90;;;;;;5062225;28;20915;-90
2022/07/15 02:50:20;;;;;;;2.53;2.10;;;17.00;99.90;;;;;;5063193;28;21376;-88
2022/07/15 02:52:47;;;;;;;2.03;1.83;;;16.90;99.90;;;;;;5063232;28;21013;-87
2022/07/15 02:55:16;;;;;;;3.70;1.93;;;16.90;99.90;;;;;;5062513;28;20497;-86
2022/07/15 02:57:43;;;;;;;3.77;1.80;;;16.80;99.90;;;;;;5060928;28;20459;-86
2022/07/15 03:00:12;;;;;;;3.90;2.00;;;16.70;99.90;;;;;;5063851;28;20977;-88
2022/07/15 03:02:41;;;;;;;2.77;2.57;;;16.90;99.90;;;;;;5062357;28;20436;-87
2022/07/15 03:05:09;;;;;;;2.50;2.30;;;17.00;99.90;;;;;;5066862;28;20647;-86
2022/07/15 03:07:36;;;;;;;1.67;1.57;;;17.00;99.90;;;;;;5075110;28;20448;-86
2022/07/15 03:10:04;;;;;;;3.13;2.37;;;17.00;99.90;;;;;;5062544;28;20550;-86
2022/07/15 03:12:31;;;;;;;2.70;2.50;;;17.10;99.90;;;;;;5064064;28;20458;-90
2022/07/15 03:14:58;;;;;;;8.47;2.27;;;17.10;99.90;;;;;;5061890;28;20451;-87
2022/07/15 03:17:25;;;;;;;2.87;2.23;;;17.10;99.90;;;;;;5063163;28;20521;-88
2022/07/15 03:19:55;;;;;;;3.10;2.60;;;17.00;99.90;;;;;;5060500;28;21107;-90
2022/07/15 03:22:22;;;;;;;4.87;2.50;;;17.00;99.90;;;;;;5058136;28;20857;-87
2022/07/15 03:24:49;;;;;;;2.60;2.00;;;16.80;99.90;;;;;;5061937;28;20582;-88
2022/07/15 03:27:18;;;;;;;4.03;3.63;;;16.70;99.90;;;;;;5060864;28;20510;-89
2022/07/15 03:29:45;;;;;;;2.50;2.30;;;16.70;99.90;;;;;;5061002;28;20934;-87
2022/07/15 03:32:15;;;;;;;2.73;2.00;;;16.80;99.90;;;;;;5056257;28;20453;-90
2022/07/15 03:34:43;;;;;;;6.93;2.50;;;16.70;99.90;;;;;;5059091;28;20517;-87
2022/07/15 03:37:12;;;;;;;2.97;2.77;;;16.70;99.90;;;;;;5062178;28;20467;-87
2022/07/15 03:39:39;;;;;;;3.53;2.93;;;16.80;99.90;;;;;;5060471;28;20494;-86
2022/07/15 03:42:06;;;;;;;2.60;2.50;;;16.80;99.90;;;;;;5055359;28;20471;-86
2022/07/15 03:44:33;;;;;;;6.30;2.90;;;16.80;99.90;;;;;;5060124;28;20938;-86
2022/07/15 03:47:00;;;;;;;3.90;2.60;;;16.80;99.90;;;;;;5059404;28;20502;-87
2022/07/15 03:49:28;;;;;;;5.57;4.00;;;16.90;99.90;;;;;;5061949;28;20458;-87
2022/07/15 03:51:55;;;;;;;4.13;3.00;;;17.00;99.90;;;;;;5058272;28;20455;-87
2022/07/15 03:54:24;;;;;;;2.87;2.63;;;16.90;99.90;;;;;;5056837;28;20452;-87
2022/07/15 03:56:51;;;;;;;2.97;2.77;;;16.80;99.90;;;;;;5060771;28;20945;-89
2022/07/15 03:59:20;;;;;;;3.47;2.87;;;16.80;99.90;;;;;;5057784;28;20540;-86
2022/07/15 04:01:47;;;;;;;5.83;3.23;;;16.80;99.90;;;;;;5064573;28;20455;-86
2022/07/15 04:04:14;;;;;;;3.77;2.87;;;16.80;99.90;;;;;;5058830;28;20521;-85
2022/07/15 04:06:41;;;;;;;3.50;2.43;;;16.80;99.90;;;;;;5058895;28;20449;-88
2022/07/15 04:09:10;;;;;;;2.37;2.27;;;17.00;99.90;;;;;;5062804;28;20451;-86
2022/07/15 04:11:42;;;;;;;2.60;2.40;;;17.00;99.90;;;;;;5061766;28;20467;-85
2022/07/15 04:14:11;;;;;;;2.90;2.70;;;17.00;99.90;;;;;;5061076;28;20486;-85
2022/07/15 04:16:38;;;;;;;4.00;2.83;;;17.00;99.90;;;;;;5060967;28;20566;-85
2022/07/15 04:19:05;;;;;;;3.33;2.57;;;17.00;99.90;;;;;;5056197;28;20495;-85
2022/07/15 04:21:32;;;;;;;2.67;2.47;;;17.00;99.90;;;;;;5059508;28;20491;-87
2022/07/15 04:24:00;;;;;;;3.13;2.83;;;17.10;99.90;;;;;;5060895;28;20495;-85
2022/07/15 04:26:27;;;;;;;2.70;2.10;;;17.20;99.90;;;;;;5062843;28;20938;-85
2022/07/15 04:28:56;;;;;;;3.77;2.80;;;17.30;99.90;;;;;;5059803;28;20456;-84
2022/07/15 04:31:23;;;;;;;2.67;2.47;;;17.30;99.90;;;;;;5060163;28;21183;-86
2022/07/15 04:33:50;;;;;;;2.90;2.60;;;17.40;99.90;;;;;;5063944;28;20455;-87
2022/07/15 04:36:17;;;;;;;3.67;2.63;;;17.40;99.90;;;;;;5056631;28;20495;-85
2022/07/15 04:38:44;;;;;;;2.90;2.70;;;17.30;99.90;;;;;;5061071;28;20552;-86
2022/07/15 04:41:11;;;;;;;3.73;2.60;;;17.10;99.90;;;;;;5063339;28;20455;-87
2022/07/15 04:43:38;;;;;;;7.57;3.27;;;17.10;99.90;;;;;;5059751;28;20473;-85
2022/07/15 04:46:06;;;;;;;2.20;2.00;;;17.10;99.90;;;;;;5061077;28;20530;-86
2022/07/15 04:51:18;;;;;;;3.47;3.17;;;16.80;99.90;;;;;;5065056;28;20469;-86
2022/07/15 04:53:46;;;;;;;3.33;3.03;;;16.90;99.90;;;;;;5064210;28;20550;-87
2022/07/15 04:56:13;;;;;;;3.27;2.97;;;16.90;99.90;;;;;;5066850;28;20875;-86
2022/07/15 04:58:40;;;;;;;3.70;2.50;;;16.90;99.90;;;;;;5063561;28;20471;-87
2022/07/15 05:01:08;;;;;;;3.33;3.00;;;16.90;99.90;;;;;;5066120;28;20475;-90
2022/07/15 05:03:35;;;;;;;2.67;2.47;;;16.90;99.90;;;;;;5063261;28;20455;-86
2022/07/15 05:06:03;;;;;;;6.30;3.00;;;17.00;99.90;;;;;;5062383;28;20565;-86
2022/07/15 05:08:30;;;;;;;6.77;2.43;;;17.00;99.90;;;;;;5060240;28;20562;-86
2022/07/15 05:10:58;;;;;;;3.80;3.20;;;17.00;99.90;;;;;;5064253;28;20466;-87
2022/07/15 05:13:25;;;;;;;3.13;2.83;;;17.10;99.90;;;;;;5061782;28;20573;-86
2022/07/15 05:15:52;;;;;;;2.80;2.60;;;17.30;99.90;;;;;;5061106;28;20479;-87
2022/07/15 05:18:20;;;;;;;2.63;2.53;;;17.60;99.90;;;;;;5064748;28;20488;-87
2022/07/15 05:20:47;;;;;;;3.80;3.50;;;17.90;99.90;;;;;;5064800;28;21161;-86
2022/07/15 05:23:16;;;;;;;3.47;3.10;;;18.20;99.90;;;;;;5064249;28;20451;-87
2022/07/15 05:25:44;;;;;;;3.13;2.57;;;18.40;99.90;;;;;;5064956;28;20454;-87
2022/07/15 05:28:11;;;;;;;5.73;3.97;;;18.40;99.90;;;;;;5063473;28;22255;-87
2022/07/15 05:30:38;;;;;;;6.03;4.53;;;18.30;99.90;;;;;;5064602;28;20463;-86
2022/07/15 05:33:05;;;;;;;3.93;3.60;;;18.50;99.90;;;;;;5064417;28;20456;-85
2022/07/15 05:35:34;;;;;;;4.10;3.10;;;18.50;99.90;;;;;;5059525;28;20467;-85
2022/07/15 05:38:01;;;;;;;2.53;2.33;;;18.40;99.90;;;;;;5065364;28;20522;-85
2022/07/15 05:40:29;;;;;;;5.10;3.53;;;18.50;99.90;;;;;;5060321;28;20479;-88
2022/07/15 05:42:56;;;;;;;5.13;3.20;;;18.60;99.90;;;;;;5066478;28;20938;-87
2022/07/15 05:45:23;;;;;;;7.07;3.67;;;18.90;99.90;;;;;;5060715;28;20468;-87
2022/07/15 05:47:50;;;;;;;2.70;2.50;;;19.10;99.90;;;;;;5065684;28;20486;-87
2022/07/15 05:50:18;;;;;;;2.97;2.20;;;19.20;99.90;;;;;;5066733;28;20461;-86
2022/07/15 05:52:46;;;;;;;2.70;2.50;;;19.20;99.90;;;;;;5060673;28;20460;-86
2022/07/15 05:55:13;;;;;;;2.90;2.70;;;19.00;99.90;;;;;;5065750;28;20474;-85
2022/07/15 05:57:41;;;;;;;3.30;1.83;;;19.00;99.90;;;;;;5070123;28;20467;-86
2022/07/15 06:00:09;;;;;;;2.53;2.10;;;19.20;99.90;;;;;;5078046;28;20488;-88
2022/07/15 06:02:36;;;;;;;2.23;2.03;;;19.00;99.90;;;;;;5082680;28;20460;-88
2022/07/15 06:05:03;;;;;;;3.10;2.80;;;19.00;99.90;;;;;;5066672;28;20488;-86
2022/07/15 06:07:30;;;;;;;2.73;2.20;;;19.30;99.90;;;;;;5064353;28;20464;-88
2022/07/15 06:09:59;;;;;;;2.20;2.00;;;19.30;99.90;;;;;;5058416;28;20569;-90
2022/07/15 06:12:26;;;;;;;1.83;1.73;;;19.40;99.90;;;;;;5050801;28;20471;-91
2022/07/15 06:14:53;;;;;;;6.10;2.50;;;19.20;99.90;;;;;;5052369;28;20460;-88
2022/07/15 06:17:20;;;;;;;2.70;2.23;;;19.30;99.90;;;;;;5053566;28;20485;-91
2022/07/15 06:19:47;;;;;;;1.57;1.43;;;19.40;99.90;;;;;;5052984;28;20483;-88
2022/07/15 06:22:14;;;;;;;2.50;2.40;;;19.10;99.90;;;;;;5056628;28;20472;-91
2022/07/15 06:24:41;;;;;;;3.50;1.93;;;19.10;99.90;;;;;;5059269;28;21060;-88
2022/07/15 06:27:10;;;;;;;1.83;1.73;;;19.00;99.90;;;;;;5055322;28;20480;-87
2022/07/15 06:29:37;;;;;;;1.93;1.70;;;19.00;99.90;;;;;;5061156;28;20528;-88
2022/07/15 06:32:05;;;;;;;1.80;1.70;;;19.10;99.90;;;;;;5063441;28;20451;-88
2022/07/15 06:34:32;;;;;;;1.70;1.60;;;19.20;99.90;;;;;;5060156;28;20475;-89
2022/07/15 06:36:59;;;;;;;1.90;1.80;;;19.10;99.90;;;;;;5058070;28;20485;-89
2022/07/15 06:39:26;;;;;;;1.63;1.50;;;18.90;99.90;;;;;;5058866;28;20549;-91
2022/07/15 06:41:53;;;;;;;1.23;1.10;;;19.00;99.90;;;;;;5059807;28;20534;-89
2022/07/15 06:44:22;;;;;;;2.53;1.60;;;19.10;99.90;;;;;;5061602;28;20466;-92
2022/07/15 06:46:49;;;;;;;1.00;0.90;;;19.20;99.90;;;;;;5059991;28;20479;-90
2022/07/15 06:49:16;;;;;;;1.73;1.07;;;19.10;99.90;;;;;;5057648;28;20496;-89
2022/07/15 06:51:43;;;;;;;1.43;0.80;;;19.20;99.90;;;;;;5057851;28;20467;-89
2022/07/15 06:54:11;;;;;;;1.30;1.20;;;19.30;99.90;;;;;;5061237;28;20447;-88
2022/07/15 06:56:38;;;;;;;1.07;0.90;;;19.20;99.90;;;;;;5061138;28;20467;-89
2022/07/15 06:59:05;;;;;;;2.00;0.80;;;19.60;99.90;;;;;;5058923;28;20457;-90
2022/07/15 07:01:34;;;;;;;1.77;1.67;;;20.00;99.90;;;;;;5053188;28;20538;-89
2022/07/15 07:04:01;;;;;;;2.13;1.00;;;20.30;99.90;;;;;;5060083;28;20456;-91
2022/07/15 07:06:28;;;;;;;1.23;1.07;;;19.70;99.90;;;;;;5065002;28;20462;-87
2022/07/15 07:08:55;;;;;;;2.70;0.70;;;19.40;99.90;;;;;;5061236;28;20851;-89
2022/07/15 07:11:22;;;;;;;3.90;0.80;;;19.30;99.90;;;;;;5060965;28;20479;-87
2022/07/15 07:13:50;;;;;;;0.87;0.83;;;19.40;99.90;;;;;;5062297;28;20463;-88
2022/07/15 07:16:17;;;;;;;1.53;0.70;;;19.80;99.90;;;;;;5062572;28;20488;-88
2022/07/15 07:18:47;;;;;;;0.80;0.63;;;19.90;99.90;;;;;;5066035;28;20463;-89
2022/07/15 07:21:14;;;;;;;4.10;1.30;;;20.10;99.90;;;;;;5067544;28;20474;-88
2022/07/15 07:23:41;;;;;;;2.47;0.90;;;20.10;99.90;;;;;;5061117;28;20465;-88
2022/07/15 07:26:10;;;;;;;0.93;0.80;;;20.70;99.90;;;;;;5060161;28;20454;-87
2022/07/15 07:28:39;;;;;;;1.57;0.70;;;20.60;99.20;;;;;;5056997;28;21013;-88
2022/07/15 07:31:06;;;;;;;2.70;0.80;;;20.10;98.90;;;;;;5055880;28;20466;-88
2022/07/15 07:33:33;;;;;;;3.00;1.07;;;19.90;99.90;;;;;;5054161;28;20465;-87
2022/07/15 07:36:03;;;;;;;0.97;0.93;;;20.00;99.90;;;;;;5059759;28;20493;-91
2022/07/15 07:38:31;;;;;;;1.30;1.10;;;20.20;99.90;;;;;;5062548;28;20462;-90
2022/07/15 07:40:59;;;;;;;2.50;0.80;;;20.50;99.90;;;;;;5057515;28;20565;-88
2022/07/15 07:43:26;;;;;;;1.40;0.90;;;20.30;99.90;;;;;;5062132;28;20458;-88
2022/07/15 07:45:53;;;;;;;0.90;0.70;;;20.20;99.90;;;;;;5061462;28;20468;-90
2022/07/15 07:48:20;;;;;;;1.13;0.90;;;20.60;99.90;;;;;;5063997;28;20944;-88
2022/07/15 07:50:48;;;;;;;2.10;0.90;;;20.70;99.90;;;;;;5062231;28;20448;-90
2022/07/15 07:53:16;;;;;;;1.37;1.03;;;20.30;99.90;;;;;;5061397;28;20928;-88
2022/07/15 07:55:43;;;;;;;1.03;0.90;;;20.10;99.90;;;;;;5062258;28;20511;-88
2022/07/15 07:58:11;;;;;;;3.13;1.83;;;19.80;99.90;;;;;;5060702;28;20489;-88
2022/07/15 08:00:39;;;;;;;1.90;1.10;;;19.80;99.90;;;;;;5059276;28;20485;-90
2022/07/15 08:03:06;;;;;;;1.40;1.30;;;20.20;99.90;;;;;;5058729;28;20525;-88
2022/07/15 08:05:33;;;;;;;0.70;0.67;;;20.20;98.90;;;;;;5061133;28;20467;-88
2022/07/15 08:08:13;;;;;;;2.80;0.83;;;20.60;99.90;;;;;;5064049;28;20505;-88
2022/07/15 08:10:43;;;;;;;0.83;0.80;;;20.90;99.20;;;;;;5062656;28;20533;-91
2022/07/15 08:13:10;;;;;;;2.30;0.93;;;21.00;98.10;;;;;;5063466;28;20455;-90
2022/07/15 08:15:37;;;;;;;1.13;1.00;;;21.40;98.90;;;;;;5058159;28;21025;-90
2022/07/15 08:18:04;;;;;;;1.07;0.70;;;21.40;96.30;;;;;;5057370;28;20463;-88
2022/07/15 08:20:32;;;;;;;3.30;0.93;;;21.70;98.30;;;;;;5062215;28;21045;-89
2022/07/15 08:22:59;;;;;;;1.63;1.33;;;22.00;97.30;;;;;;5058217;28;21002;-88
2022/07/15 08:25:28;;;;;;;0.90;0.80;;;22.10;95.70;;;;;;5062889;28;20460;-88
2022/07/15 08:27:58;;;;;;;3.13;1.40;;;22.00;94.60;;;;;;5059487;28;20451;-88
2022/07/15 08:30:25;;;;;;;2.10;0.70;;;21.90;95.50;;;;;;5062179;28;20459;-88
2022/07/15 08:32:52;;;;;;;0.80;0.80;;;21.70;95.00;;;;;;5063525;28;20949;-87
2022/07/15 08:35:20;;;;;;;1.43;0.80;;;21.80;96.50;;;;;;5058189;28;20474;-88
2022/07/15 08:37:47;;;;;;;2.30;1.53;;;21.80;94.30;;;;;;5058376;28;20576;-90
2022/07/15 08:40:16;;;;;;;1.10;1.00;;;21.70;95.10;;;;;;5051199;28;20495;-89
2022/07/15 08:42:46;;;;;;;6.97;1.30;;;21.70;95.20;;;;;;5055081;28;21231;-88
2022/07/15 08:45:15;;;;;;;0.80;0.80;;;21.80;94.10;;;;;;5060871;28;21799;-88
2022/07/15 08:47:44;;;;;;;1.07;1.00;;;22.30;94.00;;;;;;5062214;28;20970;-88
2022/07/15 08:50:14;;;;;;;3.50;1.30;;;22.40;93.80;;;;;;5056719;28;20475;-89
2022/07/15 08:52:43;;;;;;;1.63;1.53;;;22.40;93.80;;;;;;5058687;28;20553;-88
2022/07/15 08:55:10;;;;;;;1.20;1.10;;;22.10;92.90;;;;;;5085273;28;20448;-88
2022/07/15 08:57:38;;;;;;;2.10;1.00;;;22.10;92.60;;;;;;5082845;28;20797;-88
2022/07/15 09:00:09;;;;;;;1.27;0.97;;;22.20;93.20;;;;;;5057041;28;20464;-88
2022/07/15 09:02:38;;;;;;;1.33;1.00;;;22.40;96.50;;;;;;5056988;28;20584;-88
2022/07/15 09:05:22;;;;;;;0.90;0.90;;;22.80;95.10;;;;;;5058377;28;20934;-89
2022/07/15 09:08:06;;;;;;;1.50;1.40;;;23.40;93.40;;;;;;5059008;28;21190;-90
2022/07/15 09:10:52;;;;;;;1.30;1.20;;;23.20;92.90;;;;;;5062603;28;20480;-88
2022/07/15 09:13:29;;;;;;;4.00;1.43;;;22.90;91.90;;;;;;5054929;28;20798;-88
2022/07/15 09:15:58;;;;;;;1.50;1.03;;;22.80;93.20;;;;;;5060252;28;20689;-87
2022/07/15 09:18:28;;;;;;;2.23;1.33;;;22.70;95.70;;;;;;5061691;28;20448;-89
2022/07/15 09:20:57;;;;;;;1.50;1.40;;;22.40;93.50;;;;;;5060667;28;21090;-87
2022/07/15 09:23:30;;;;;;;5.33;0.97;;;22.50;93.00;;;;;;5059550;28;20461;-89
2022/07/15 09:25:59;;;;;;;2.30;1.60;;;22.70;92.50;;;;;;5058017;28;20447;-87
2022/07/15 09:28:40;;;;;;;2.20;1.20;;;22.90;92.10;;;;;;5058855;28;20456;-87
2022/07/15 09:34:01;;;;;;;1.20;1.10;;;23.40;93.00;;;;;;5057954;28;20448;-88
2022/07/15 09:36:29;;;;;;;0.90;0.90;;;23.80;93.10;;;;;;5065839;28;20512;-88
2022/07/15 09:38:59;;;;;;;2.73;1.23;;;23.90;92.30;;;;;;5065476;28;20565;-88
2022/07/15 09:41:29;;;;;;;2.60;1.40;;;23.60;92.40;;;;;;5058186;28;20475;-89
2022/07/15 09:43:59;;;;;;;1.17;1.07;;;23.20;91.60;;;;;;5058834;28;20448;-89
2022/07/15 09:46:28;;;;;;;3.33;1.10;;;23.30;92.90;;;;;;5058445;28;20521;-88
2022/07/15 09:48:56;;;;;;;1.23;1.13;;;23.60;93.10;;;;;;5061365;28;20491;-88
2022/07/15 09:51:24;;;;;;;2.90;1.40;;;23.40;92.90;;;;;;5060699;28;20693;-87
2022/07/15 09:53:52;;;;;;;2.37;2.07;;;23.30;92.40;;;;;;5053703;28;20460;-89
2022/07/15 09:56:23;;;;;;;2.90;1.20;;;23.00;91.50;;;;;;5057373;28;21152;-89
2022/07/15 09:58:52;;;;;;;1.30;1.30;;;23.00;92.30;;;;;;5053287;28;20463;-90
2022/07/15 10:01:19;;;;;;;2.03;1.83;;;23.30;92.70;;;;;;5058645;28;20487;-88
2022/07/15 10:03:46;;;;;;;1.53;1.23;;;23.90;94.10;;;;;;5057893;28;20460;-90
2022/07/15 10:06:16;;;;;;;1.37;1.27;;;24.10;92.40;;;;;;5057237;28;20459;-89
2022/07/15 10:08:48;;;;;;;1.67;1.57;;;24.40;91.90;;;;;;5057099;28;20551;-88
2022/07/15 10:11:16;;;;;;;1.70;1.60;;;24.50;88.50;;;;;;5061599;28;20878;-87
2022/07/15 10:14:31;;;;;;;1.80;1.13;;;23.80;90.10;;;;;;5061283;28;20459;-89
2022/07/15 10:17:21;;;;;;;2.00;1.60;;;24.40;90.90;;;;;;5063055;28;20491;-89
2022/07/15 10:20:07;;;;;;;1.20;1.10;;;24.50;90.50;;;;;;5062267;28;20437;-89
2022/07/15 10:22:51;;;;;;;1.53;1.40;;;23.90;91.70;;;;;;5058410;28;20537;-87
2022/07/15 10:25:32;;;;;;;2.20;1.23;;;23.60;90.30;;;;;;5058916;28;20463;-88
2022/07/15 10:28:13;;;;;;;1.43;1.33;;;24.20;91.30;;;;;;5059916;28;20776;-89
2022/07/15 10:30:42;;;;;;;1.27;1.17;;;24.40;91.40;;;;;;5063863;28;20518;-89
2022/07/15 10:33:16;;;;;;;2.47;1.43;;;24.70;91.20;;;;;;5063786;28;20801;-88
2022/07/15 10:35:46;;;;;;;3.70;1.40;;;25.00;86.90;;;;;;5060368;28;20537;-89
2022/07/15 10:38:24;;;;;;;13.83;1.70;;;24.90;84.50;;;;;;5059688;28;21018;-89
2022/07/15 10:40:58;;;;;;;2.00;1.63;;;24.40;87.80;;;;;;5061858;28;20979;-88
2022/07/15 10:43:39;;;;;;;3.40;2.70;;;23.30;90.00;;;;;;5059315;28;20517;-89
2022/07/15 10:46:18;;;;;;;2.60;1.57;;;23.60;91.20;;;;;;5059496;28;20501;-87
2022/07/15 10:48:46;;;;;;;2.97;2.43;;;24.00;89.10;;;;;;5067731;28;20458;-88
2022/07/15 10:51:14;;;;;;;1.63;1.53;;;24.40;90.50;;;;;;5066003;28;20472;-89
2022/07/15 10:53:46;;;;;;;3.67;3.37;;;24.00;90.30;;;;;;5058102;28;20951;-87
2022/07/15 10:56:30;;;;;;;2.13;2.03;;;24.10;88.10;;;;;;5062819;28;22274;-88
2022/07/15 10:59:10;;;;;;;2.13;2.03;;;24.20;89.70;;;;;;5062836;28;20452;-87
2022/07/15 11:01:38;;;;;;;1.93;1.83;;;23.80;89.90;;;;;;5061385;28;20491;-89
2022/07/15 11:04:14;;;;;;;2.00;1.90;;;23.70;90.80;;;;;;5063962;28;20482;-88
2022/07/15 11:07:31;;;;;;;2.00;1.80;;;23.70;90.90;;;;;;5060761;28;20959;-88
2022/07/15 11:10:19;;;;;;;2.73;2.37;;;24.30;92.10;;;;;;5058593;28;20459;-88
2022/07/15 11:13:00;;;;;;;2.83;2.07;;;25.10;89.80;;;;;;5060074;28;20448;-89
2022/07/15 11:15:27;;;;;;;1.93;1.83;;;25.40;87.20;;;;;;5064677;28;20464;-88
2022/07/15 11:17:56;;;;;;;5.87;2.27;;;25.50;86.50;;;;;;5060196;28;20942;-88
2022/07/15 11:20:27;;;;;;;1.70;1.60;;;25.00;82.10;;;;;;5060131;28;20488;-88
2022/07/15 11:22:56;;;;;;;1.90;1.80;;;24.40;81.70;;;;;;5059766;28;20507;-90
2022/07/15 11:25:26;;;;;;;1.60;1.10;;;24.00;86.40;;;;;;5064449;28;20505;-90
2022/07/15 11:28:12;;;;;;;1.40;1.30;;;24.50;87.30;;;;;;5058773;28;20886;-90
2022/07/15 11:30:42;;;;;;;1.67;1.57;;;25.00;86.50;;;;;;5061167;28;20493;-89
2022/07/15 11:33:12;;;;;;;1.37;1.27;;;25.00;81.80;;;;;;5056826;28;20506;-90
2022/07/15 11:35:52;;;;;;;3.03;1.70;;;25.30;85.60;;;;;;5057200;28;20472;-89
2022/07/15 11:38:23;;;;;;;1.50;1.33;;;24.50;82.00;;;;;;5054523;28;21234;-91
2022/07/15 11:46:23;;;;;;;1.60;1.50;;;24.60;86.20;;;;;;5076378;28;20559;-91
2022/07/15 11:48:52;;;;;;;2.00;1.20;;;24.20;85.40;;;;;;5090439;28;20460;-91
2022/07/15 11:51:25;;;;;;;1.87;1.77;;;24.00;86.60;;;;;;5069433;28;20551;-89
2022/07/15 11:53:52;;;;;;;1.70;1.50;;;24.30;88.00;;;;;;5063734;28;20456;-88
2022/07/15 11:56:21;;;;;;;1.80;1.70;;;24.40;85.60;;;;;;5057922;28;20468;-88
2022/07/15 11:58:52;;;;;;;2.03;1.60;;;24.50;85.50;;;;;;5058404;28;20482;-90
2022/07/15 12:01:22;;;;;;;6.30;2.13;;;24.50;85.00;;;;;;5057254;28;20578;-89
2022/07/15 12:03:50;;;;;;;1.57;1.47;;;25.10;81.60;;;;;;5056882;28;20456;-90
2022/07/15 12:06:19;;;;;;;2.10;1.70;;;25.20;80.80;;;;;;5059263;28;20509;-88
2022/07/15 12:08:49;;;;;;;1.50;1.40;;;25.00;79.40;;;;;;5053610;28;20478;-89
2022/07/15 12:11:24;;;;;;;5.37;1.77;;;24.80;79.60;;;;;;5058725;28;20464;-89
2022/07/15 12:13:55;;;;;;;1.97;1.87;;;25.60;83.90;;;;;;5056814;28;20822;-90
2022/07/15 12:16:26;;;;;;;1.73;1.63;;;25.40;78.20;;;;;;5058565;28;20574;-89
2022/07/15 12:18:55;;;;;;;1.57;1.37;;;25.20;80.30;;;;;;5058436;28;20464;-89
2022/07/15 12:21:22;;;;;;;2.63;2.00;;;25.40;80.50;;;;;;5058125;28;20560;-90
2022/07/15 12:24:05;;;;;;;2.13;1.93;;;26.00;81.40;;;;;;5052861;28;20460;-90
2022/07/15 12:26:35;;;;;;;4.80;1.20;;;25.70;79.00;;;;;;5050142;28;21543;-89
2022/07/15 12:29:03;;;;;;;1.47;1.17;;;25.40;78.90;;;;;;5056747;28;20459;-89
2022/07/15 12:31:33;;;;;;;2.23;1.70;;;25.10;79.30;;;;;;5052547;28;20498;-88
2022/07/15 12:34:00;;;;;;;1.20;1.20;;;25.00;77.00;;;;;;5061808;28;20495;-90
2022/07/15 12:36:29;;;;;;;1.43;1.23;;;25.50;82.90;;;;;;5057194;28;20463;-89
2022/07/15 12:39:12;;;;;;;1.20;1.10;;;26.20;81.40;;;;;;5055236;28;20465;-90
2022/07/15 12:41:43;;;;;;;1.30;1.20;;;26.10;73.50;;;;;;5050309;28;22351;-89
2022/07/15 12:44:11;;;;;;;1.30;1.20;;;25.60;75.90;;;;;;5057196;28;20961;-89
2022/07/15 12:46:57;;;;;;;1.67;1.20;;;25.00;76.90;;;;;;5057108;28;20927;-90
2022/07/15 12:49:54;;;;;;;1.57;1.43;;;24.70;78.80;;;;;;5053252;28;20505;-88
2022/07/15 12:52:30;;;;;;;2.23;2.13;;;25.00;81.60;;;;;;4947195;28;20477;-89
2022/07/15 12:54:58;;;;;;;1.10;1.00;;;25.20;74.50;;;;;;5042344;28;20478;-89
2022/07/15 12:57:31;;;;;;;0.90;0.90;;;25.60;79.10;;;;;;5059893;28;20911;-89
2022/07/15 13:00:00;;;;;;;4.93;1.30;;;25.60;75.30;;;;;;5059904;28;20502;-90
2022/07/15 13:02:28;;;;;;;2.10;1.03;;;25.40;75.20;;;;;;5059671;28;20533;-89
2022/07/15 13:04:55;;;;;;;1.77;1.67;;;25.40;77.50;;;;;;5057670;28;20533;-88
2022/07/15 13:07:22;;;;;;;0.93;0.93;;;25.40;74.50;;;;;;5060158;28;20521;-90
2022/07/15 13:09:49;;;;;;;2.00;1.80;;;25.60;76.20;;;;;;5064482;28;20847;-88
2022/07/15 13:12:17;;;;;;;1.07;0.90;;;25.70;74.20;;;;;;5056106;28;20495;-89
2022/07/15 13:14:45;;;;;;;1.00;1.00;;;25.60;73.10;;;;;;5055089;28;20467;-90
2022/07/15 13:17:12;;;;;;;0.90;0.90;;;25.70;71.20;;;;;;5059850;28;20857;-89